createdAt,value
2023-01-04T00:01:25.426Z,101802.73
2023-01-04T00:03:57.685Z,101805.04
2023-01-04T00:06:30.342Z,101801.27
2023-01-04T00:09:02.747Z,101799.62
2023-01-04T00:11:34.927Z,101799.41
2023-01-04T00:14:07.186Z,101796.08
2023-01-04T00:16:39.597Z,101799.77
2023-01-04T00:19:13.712Z,101796.88
2023-01-04T00:21:45.936Z,101797.71
2023-01-04T00:24:18.108Z,101795.36
2023-01-04T00:26:50.283Z,101789.85
2023-01-04T00:29:22.856Z,101794.31
2023-01-04T00:31:55.175Z,101796.23
2023-01-04T00:34:27.477Z,101803.07
2023-01-04T00:36:59.766Z,101807.18
2023-01-04T00:39:31.953Z,101816.60
2023-01-04T00:42:06.383Z,101814.58
2023-01-04T00:44:38.616Z,101820.79
2023-01-04T00:47:11.128Z,101827.86
2023-01-04T00:49:43.347Z,101830.29
2023-01-04T00:52:15.516Z,101832.27
2023-01-04T00:54:47.668Z,101838.80
2023-01-04T00:57:19.873Z,101842.48
2023-01-04T00:59:52.085Z,101843.95
2023-01-04T01:02:24.599Z,101841.83
2023-01-04T01:04:56.994Z,101837.39
2023-01-04T01:07:29.177Z,101834.08
2023-01-04T01:10:01.840Z,101839.55
2023-01-04T01:12:34.172Z,101842.98
2023-01-04T01:15:07.705Z,101846.49
2023-01-04T01:17:40.143Z,101850.83
2023-01-04T01:20:13.188Z,101849.77
2023-01-04T01:22:45.585Z,101846.14
2023-01-04T01:25:17.813Z,101840.56
2023-01-04T01:27:50.046Z,101835.88
2023-01-04T01:30:22.197Z,101839.76
2023-01-04T01:32:54.400Z,101840.88
2023-01-04T01:35:26.586Z,101846.02
2023-01-04T01:37:58.741Z,101847.55
2023-01-04T01:40:31.231Z,101845.35
2023-01-04T01:43:03.524Z,101850.52
2023-01-04T01:45:36.519Z,101845.44
2023-01-04T01:48:19.701Z,101845.11
2023-01-04T01:50:55.275Z,101841.63
2023-01-04T01:53:29.895Z,101844.50
2023-01-04T01:56:04.777Z,101839.14
2023-01-04T01:58:41.203Z,101838.25
2023-01-04T02:01:14.965Z,101836.19
2023-01-04T02:03:47.418Z,101839.52
2023-01-04T02:06:23.937Z,101844.83
2023-01-04T02:08:56.771Z,101843.38
2023-01-04T02:11:29.579Z,101846.38
2023-01-04T02:14:22.526Z,101844.34
2023-01-04T02:17:08.759Z,101836.14
2023-01-04T02:20:23.970Z,101835.89
2023-01-04T02:23:40.954Z,101836.64
2023-01-04T02:26:51.931Z,101837.48
2023-01-04T02:29:59.519Z,101831.02
2023-01-04T02:32:47.047Z,101829.06
2023-01-04T02:35:26.474Z,101823.63
2023-01-04T02:38:09.639Z,101820.85
2023-01-04T02:40:53.562Z,101823.05
2023-01-04T02:43:49.760Z,101823.16
2023-01-04T02:46:28.201Z,101837.71
2023-01-04T02:49:21.449Z,101842.44
2023-01-04T02:51:53.854Z,101844.71
2023-01-04T02:54:31.064Z,101841.11
2023-01-04T02:57:26.557Z,101842.65
2023-01-04T03:00:25.628Z,101842.95
2023-01-04T03:03:36.325Z,101839.01
2023-01-04T03:06:17.504Z,101830.52
2023-01-04T03:09:05.862Z,101841.75
2023-01-04T03:12:02.567Z,101838.98
2023-01-04T03:14:40.777Z,101839.36
2023-01-04T03:17:17.654Z,101840.99
2023-01-04T03:19:55.973Z,101840.42
2023-01-04T03:22:55.231Z,101838.88
2023-01-04T03:25:48.140Z,101835.02
2023-01-04T03:28:40.984Z,101833.70
2023-01-04T03:31:38.595Z,101832.11
2023-01-04T03:34:28.902Z,101830.92
2023-01-04T03:37:11.858Z,101830.52
2023-01-04T03:40:17.809Z,101822.53
2023-01-04T03:43:15.074Z,101836.78
2023-01-04T03:46:09.872Z,101843.46
2023-01-04T03:48:47.489Z,101849.34
2023-01-04T03:51:22.940Z,101848.64
2023-01-04T03:54:04.256Z,101855.42
2023-01-04T03:56:42.015Z,101851.59
2023-01-04T03:59:15.043Z,101853.43
2023-01-04T04:01:47.445Z,101858.42
2023-01-04T04:04:37.688Z,101860.77
2023-01-04T04:07:27.220Z,101857.29
2023-01-04T04:09:59.479Z,101857.27
2023-01-04T04:12:31.776Z,101858.43
2023-01-04T04:15:04.093Z,101859.35
2023-01-04T04:17:36.259Z,101860.29
2023-01-04T04:20:10.203Z,101863.88
2023-01-04T04:22:42.593Z,101868.72
2023-01-04T04:25:14.863Z,101871.08
2023-01-04T04:27:47.090Z,101873.86
2023-01-04T04:30:19.757Z,101878.98
2023-01-04T04:32:51.999Z,101877.95
2023-01-04T04:35:24.165Z,101876.22
2023-01-04T04:37:56.384Z,101875.20
2023-01-04T04:40:45.832Z,101883.31
2023-01-04T04:43:18.045Z,101884.78
2023-01-04T04:45:50.383Z,101887.80
2023-01-04T04:48:22.587Z,101890.78
2023-01-04T04:50:54.932Z,101889.47
2023-01-04T04:53:27.454Z,101887.92
2023-01-04T04:55:59.879Z,101885.13
2023-01-04T04:58:32.149Z,101886.94
2023-01-04T05:01:04.550Z,101895.49
2023-01-04T05:03:37.126Z,101896.68
2023-01-04T05:06:09.594Z,101905.03
2023-01-04T05:08:41.811Z,101906.62
2023-01-04T05:11:15.204Z,101910.79
2023-01-04T05:13:47.430Z,101908.70
2023-01-04T05:16:19.729Z,101905.65
2023-01-04T05:18:52.090Z,101905.39
2023-01-04T05:21:24.263Z,101898.28
2023-01-04T05:23:56.440Z,101900.83
2023-01-04T05:26:28.766Z,101899.34
2023-01-04T05:29:01.001Z,101904.67
2023-01-04T05:31:33.277Z,101901.95
2023-01-04T05:34:05.592Z,101900.78
2023-01-04T05:36:37.883Z,101903.59
2023-01-04T05:39:10.059Z,101899.84
2023-01-04T05:42:01.668Z,101908.30
2023-01-04T05:44:33.870Z,101918.60
2023-01-04T05:47:11.119Z,101920.32
2023-01-04T05:49:47.228Z,101917.86
2023-01-04T05:52:20.359Z,101919.25
2023-01-04T05:54:52.600Z,101925.43
2023-01-04T05:57:25.007Z,101922.35
2023-01-04T05:59:57.193Z,101922.59
2023-01-04T06:02:31.850Z,101920.38
2023-01-04T06:05:04.380Z,101925.58
2023-01-04T06:07:36.583Z,101928.43
2023-01-04T06:10:11.728Z,101930.79
2023-01-04T06:12:44.349Z,101942.49
2023-01-04T06:15:16.712Z,101943.17
2023-01-04T06:17:48.904Z,101950.86
2023-01-04T06:20:21.362Z,101953.43
2023-01-04T06:22:53.534Z,101954.50
2023-01-04T06:25:25.857Z,101967.38
2023-01-04T06:27:58.128Z,101969.23
2023-01-04T06:30:30.451Z,101976.38
2023-01-04T06:33:02.678Z,101980.18
2023-01-04T06:35:36.129Z,101984.33
2023-01-04T06:38:08.336Z,101982.60
2023-01-04T06:40:40.522Z,101988.82
2023-01-04T06:43:12.711Z,101992.39
2023-01-04T06:45:44.946Z,101990.84
2023-01-04T06:48:17.799Z,101991.19
2023-01-04T06:50:50.735Z,101987.67
2023-01-04T06:53:22.930Z,101988.81
2023-01-04T06:55:55.157Z,101999.50
2023-01-04T06:58:27.876Z,102004.45
2023-01-04T07:01:00.469Z,102003.20
2023-01-04T07:03:32.831Z,102008.56
2023-01-04T07:06:09.091Z,102011.30
2023-01-04T07:08:41.315Z,102012.27
2023-01-04T07:11:13.669Z,102014.39
2023-01-04T07:13:45.814Z,102017.69
2023-01-04T07:16:18.095Z,102018.56
2023-01-04T07:18:50.320Z,102017.12
2023-01-04T07:21:22.611Z,102019.16
2023-01-04T07:23:56.393Z,102025.30
2023-01-04T07:26:28.869Z,102025.72
2023-01-04T07:29:17.120Z,102026.14
2023-01-04T07:31:51.611Z,102029.48
2023-01-04T07:34:26.385Z,102036.17
2023-01-04T07:36:58.815Z,102033.35
2023-01-04T07:39:31.070Z,102036.00
2023-01-04T07:42:03.377Z,102038.48
2023-01-04T07:44:35.679Z,102038.53
2023-01-04T07:47:07.911Z,102036.29
2023-01-04T07:49:40.122Z,102031.19
2023-01-04T07:52:12.382Z,102030.52
2023-01-04T07:54:44.760Z,102035.56
2023-01-04T07:57:17.040Z,102035.63
2023-01-04T07:59:49.198Z,102030.00
2023-01-04T08:02:21.699Z,102032.46
2023-01-04T08:04:54.121Z,102043.52
2023-01-04T08:07:26.382Z,102042.30
2023-01-04T08:09:58.544Z,102039.81
2023-01-04T08:12:30.846Z,102038.67
2023-01-04T08:15:03.132Z,102041.30
2023-01-04T08:17:35.375Z,102046.84
2023-01-04T08:20:09.444Z,102051.09
2023-01-04T08:22:41.599Z,102057.21
2023-01-04T08:25:13.894Z,102058.99
2023-01-04T08:27:46.196Z,102055.96
2023-01-04T08:30:18.707Z,102064.99
2023-01-04T08:32:50.935Z,102068.25
2023-01-04T08:35:23.371Z,102074.85
2023-01-04T08:38:02.987Z,102071.96
2023-01-04T08:40:58.487Z,102063.25
2023-01-04T08:43:36.987Z,102066.09
2023-01-04T08:46:10.080Z,102067.56
2023-01-04T08:48:43.388Z,102065.64
2023-01-04T08:51:18.029Z,102065.89
2023-01-04T08:53:50.824Z,102056.19
2023-01-04T08:56:23.084Z,102055.91
2023-01-04T08:58:55.936Z,102060.09
2023-01-04T09:01:28.352Z,102054.08
2023-01-04T09:04:01.340Z,102049.86
2023-01-04T09:06:34.085Z,102042.20
2023-01-04T09:09:06.677Z,102042.63
2023-01-04T09:11:40.720Z,102043.98
2023-01-04T09:14:14.106Z,102043.58
2023-01-04T09:16:46.395Z,102042.80
2023-01-04T09:19:22.153Z,102042.82
2023-01-04T09:21:54.902Z,102041.75
2023-01-04T09:24:27.250Z,102048.17
2023-01-04T09:26:59.455Z,102055.07
2023-01-04T09:29:31.714Z,102058.12
2023-01-04T09:32:04.120Z,102056.17
2023-01-04T09:34:36.432Z,102061.00
2023-01-04T09:37:08.691Z,102059.78
2023-01-04T09:39:41.014Z,102064.99
2023-01-04T09:42:23.901Z,102059.46
2023-01-04T09:47:59.220Z,102065.77
2023-01-04T09:50:35.552Z,102066.45
2023-01-04T09:53:12.534Z,102063.61
2023-01-04T09:55:50.488Z,102066.61
2023-01-04T09:58:28.828Z,102065.71
2023-01-04T10:01:07.477Z,102063.27
2023-01-04T10:03:43.397Z,102059.57
2023-01-04T10:06:16.453Z,102060.50
2023-01-04T10:08:48.767Z,102064.63
2023-01-04T10:11:37.280Z,102065.09
2023-01-04T10:14:23.883Z,102064.13
2023-01-04T10:17:14.055Z,102059.77
2023-01-04T10:23:12.174Z,102058.93
2023-01-04T10:25:54.473Z,102058.88
2023-01-04T10:28:39.766Z,102055.16
2023-01-04T10:31:38.526Z,102050.69
2023-01-04T10:34:25.208Z,102049.33
2023-01-04T10:37:05.543Z,102050.65
2023-01-04T10:39:38.815Z,102052.79
2023-01-04T10:42:18.958Z,102050.77
2023-01-04T10:45:06.830Z,102047.44
2023-01-04T10:47:50.748Z,102047.49
2023-01-04T10:50:28.837Z,102049.90
2023-01-04T10:53:07.105Z,102054.63
2023-01-04T10:56:24.011Z,102058.16
2023-01-04T10:58:42.951Z,102046.17
2023-01-04T11:01:19.947Z,102049.63
2023-01-04T11:03:59.694Z,102054.22
2023-01-04T11:06:36.423Z,102051.81
2023-01-04T11:09:18.430Z,102050.55
2023-01-04T11:11:57.716Z,102045.84
2023-01-04T11:14:36.856Z,102045.61
2023-01-04T11:17:12.229Z,102046.02
2023-01-04T11:19:44.959Z,102047.62
2023-01-04T11:22:21.488Z,102046.55
2023-01-04T11:27:53.484Z,102041.11
2023-01-04T11:30:30.028Z,102043.36
2023-01-04T11:33:09.984Z,102044.85
2023-01-04T11:35:45.027Z,102045.45
2023-01-04T11:38:19.978Z,102043.05
2023-01-04T11:41:01.175Z,102046.64
2023-01-04T11:43:34.728Z,102043.65
2023-01-04T11:46:09.217Z,102034.98
2023-01-04T11:48:44.595Z,102041.20
2023-01-04T11:51:39.642Z,102051.63
2023-01-04T11:54:22.482Z,102044.05
2023-01-04T11:57:11.971Z,102044.08
2023-01-04T11:59:44.725Z,102050.21
2023-01-04T12:05:29.932Z,102047.11
2023-01-04T12:08:02.902Z,102044.12
2023-01-04T12:10:35.364Z,102037.02
2023-01-04T12:13:12.304Z,102035.73
2023-01-04T12:15:55.381Z,102028.88
2023-01-04T12:18:30.570Z,102027.01
2023-01-04T12:21:05.000Z,102022.98
2023-01-04T12:23:37.422Z,102020.70
2023-01-04T12:26:11.190Z,102011.71
2023-01-04T12:28:46.278Z,102019.73
2023-01-04T12:31:33.963Z,102016.48
2023-01-04T12:34:39.696Z,102023.21
2023-01-04T12:37:12.583Z,102026.41
2023-01-04T12:39:48.041Z,102021.66
2023-01-04T12:42:27.298Z,102028.84
2023-01-04T12:45:25.357Z,102028.70
2023-01-04T12:48:17.042Z,102027.01
2023-01-04T12:51:33.575Z,102024.84
2023-01-04T12:54:23.552Z,102024.25
2023-01-04T12:57:25.541Z,102021.73
2023-01-04T12:59:59.659Z,102023.62
2023-01-04T13:02:33.534Z,102023.47
2023-01-04T13:08:20.073Z,102025.66
2023-01-04T13:10:55.253Z,102028.05
2023-01-04T13:13:34.318Z,102029.78
2023-01-04T13:16:19.400Z,102034.69
2023-01-04T13:18:54.565Z,102037.02
2023-01-04T13:21:32.373Z,102036.48
2023-01-04T13:24:22.356Z,102035.20
2023-01-04T13:26:55.626Z,102036.95
2023-01-04T13:29:29.779Z,102038.29
2023-01-04T13:32:03.774Z,102034.89
2023-01-04T13:34:38.378Z,102033.34
2023-01-04T13:37:18.543Z,102036.08
2023-01-04T13:39:53.034Z,102042.59
2023-01-04T13:42:30.194Z,102042.69
2023-01-04T13:45:33.866Z,102040.77
2023-01-04T13:48:12.395Z,102037.41
2023-01-04T13:50:47.532Z,102028.61
2023-01-04T13:53:25.540Z,102027.82
2023-01-04T13:55:59.527Z,102032.67
2023-01-04T13:58:33.168Z,102035.78
2023-01-04T14:01:09.244Z,102038.65
2023-01-04T14:03:44.757Z,102039.29
2023-01-04T14:06:24.274Z,102045.63
2023-01-04T14:09:04.392Z,102039.20
2023-01-04T14:12:09.648Z,102033.16
2023-01-04T14:14:50.300Z,102031.41
2023-01-04T14:17:27.461Z,102030.23
2023-01-04T14:20:00.895Z,102029.77
2023-01-04T14:22:53.859Z,102028.88
2023-01-04T14:25:44.999Z,102029.26
2023-01-04T14:28:29.598Z,102026.52
2023-01-04T14:31:31.507Z,102028.84
2023-01-04T14:34:12.143Z,102032.89
2023-01-04T14:36:45.272Z,102030.08
2023-01-04T14:39:34.394Z,102031.06
2023-01-04T14:42:07.725Z,102035.02
2023-01-04T14:44:41.349Z,102040.48
2023-01-04T14:47:14.407Z,102042.59
2023-01-04T14:49:46.873Z,102037.31
2023-01-04T14:52:24.574Z,102043.02
2023-01-04T14:54:57.578Z,102042.81
2023-01-04T14:57:29.788Z,102043.46
2023-01-04T15:00:02.033Z,102042.72
2023-01-04T15:02:34.594Z,102040.17
2023-01-04T15:05:07.486Z,102032.75
2023-01-04T15:07:41.328Z,102031.88
2023-01-04T15:10:23.461Z,102033.41
2023-01-04T15:13:00.769Z,102034.74
2023-01-04T15:15:33.557Z,102039.84
2023-01-04T15:18:05.877Z,102037.41
2023-01-04T15:20:40.423Z,102035.49
2023-01-04T15:23:12.846Z,102039.00
2023-01-04T15:25:45.802Z,102039.02
2023-01-04T15:28:21.760Z,102039.14
2023-01-04T15:30:52.353Z,102045.47
2023-01-04T15:33:24.716Z,102052.63
2023-01-04T15:36:02.868Z,102053.16
2023-01-04T15:38:35.581Z,102059.78
2023-01-04T15:41:10.850Z,102058.81
2023-01-04T15:43:42.967Z,102059.39
2023-01-04T15:46:15.214Z,102055.83
2023-01-04T15:48:47.402Z,102061.42
2023-01-04T15:51:19.637Z,102068.45
2023-01-04T15:53:54.700Z,102064.37
2023-01-04T15:56:27.198Z,102061.86
2023-01-04T15:59:00.792Z,102066.53
2023-01-04T16:01:33.104Z,102067.98
2023-01-04T16:04:06.806Z,102068.55
2023-01-04T16:06:39.393Z,102057.46
2023-01-04T16:09:12.613Z,102060.27
2023-01-04T16:11:58.723Z,102054.57
2023-01-04T16:14:31.028Z,102051.23
2023-01-04T16:17:03.245Z,102057.61
2023-01-04T16:19:35.471Z,102056.73
2023-01-04T16:22:07.703Z,102055.55
2023-01-04T16:27:35.600Z,102058.76
2023-01-04T16:30:07.784Z,102057.06
2023-01-04T16:32:41.548Z,102044.42
2023-01-04T16:35:13.919Z,102046.67
2023-01-04T16:37:47.847Z,102039.67
2023-01-04T16:40:20.165Z,102042.45
2023-01-04T16:42:52.365Z,102041.38
2023-01-04T16:45:24.531Z,102032.88
2023-01-04T16:47:57.442Z,102036.88
2023-01-04T16:50:29.635Z,102031.87
2023-01-04T16:53:01.921Z,102033.39
2023-01-04T16:55:35.024Z,102037.92
2023-01-04T16:58:07.226Z,102038.50
2023-01-04T17:00:39.419Z,102037.89
2023-01-04T17:03:11.734Z,102030.89
2023-01-04T17:05:44.313Z,102031.48
2023-01-04T17:08:19.619Z,102028.33
2023-01-04T17:10:54.916Z,102031.28
2023-01-04T17:13:28.535Z,102028.20
2023-01-04T17:16:03.535Z,102029.10
2023-01-04T17:18:37.070Z,102034.76
2023-01-04T17:21:33.307Z,102033.31
2023-01-04T17:24:04.687Z,102037.50
2023-01-04T17:26:37.499Z,102043.30
2023-01-04T17:29:10.551Z,102041.84
2023-01-04T17:31:44.846Z,102036.38
2023-01-04T17:34:22.660Z,102035.63
2023-01-04T17:36:55.402Z,102035.71
2023-01-04T17:39:31.045Z,102034.45
2023-01-04T17:42:03.361Z,102028.64
2023-01-04T17:44:35.591Z,102029.20
2023-01-04T17:47:07.956Z,102019.27
2023-01-04T17:49:40.203Z,102021.48
2023-01-04T17:52:18.164Z,102015.02
2023-01-04T17:54:53.383Z,102015.07
2023-01-04T17:57:25.649Z,102009.52
2023-01-04T17:59:57.874Z,102013.71
2023-01-04T18:02:30.500Z,102008.56
2023-01-04T18:05:03.079Z,102005.96
2023-01-04T18:07:36.157Z,102004.33
2023-01-04T18:10:20.594Z,102002.20
2023-01-04T18:12:55.478Z,102000.67
2023-01-04T18:15:27.698Z,101995.84
2023-01-04T18:17:59.899Z,101997.89
2023-01-04T18:20:32.325Z,101991.13
2023-01-04T18:23:04.899Z,101994.46
2023-01-04T18:25:37.158Z,101994.00
2023-01-04T18:28:11.036Z,101995.04
2023-01-04T18:30:43.263Z,101992.66
2023-01-04T18:33:15.409Z,101990.17
2023-01-04T18:35:47.623Z,101992.13
2023-01-04T18:38:19.878Z,101995.48
2023-01-04T18:40:52.064Z,101992.23
2023-01-04T18:43:24.277Z,101991.41
2023-01-04T18:45:56.580Z,101988.13
2023-01-04T18:48:28.809Z,101983.05
2023-01-04T18:51:07.947Z,101979.25
2023-01-04T18:53:40.130Z,101976.67
2023-01-04T18:56:12.976Z,101968.92
2023-01-04T18:58:45.219Z,101964.85
2023-01-04T19:01:18.976Z,101964.70
2023-01-04T19:03:51.994Z,101955.82
2023-01-04T19:06:25.398Z,101955.40
2023-01-04T19:09:02.934Z,101957.10
2023-01-04T19:11:38.859Z,101959.36
2023-01-04T19:14:11.270Z,101962.38
2023-01-04T19:16:43.884Z,101961.09
2023-01-04T19:19:16.135Z,101958.22
2023-01-04T19:21:48.420Z,101951.46
2023-01-04T19:24:20.748Z,101944.29
2023-01-04T19:26:55.132Z,101942.56
2023-01-04T19:29:27.289Z,101946.10
2023-01-04T19:31:59.493Z,101943.55
2023-01-04T19:34:31.971Z,101943.50
2023-01-04T19:37:04.489Z,101945.54
2023-01-04T19:39:36.752Z,101945.20
2023-01-04T19:42:09.038Z,101943.61
2023-01-04T19:44:41.442Z,101941.70
2023-01-04T19:47:13.794Z,101936.67
2023-01-04T19:49:45.977Z,101931.77
2023-01-04T19:52:18.270Z,101930.08
2023-01-04T19:54:50.568Z,101927.02
2023-01-04T19:57:22.873Z,101920.55
2023-01-04T19:59:55.087Z,101923.15
2023-01-04T20:02:27.568Z,101925.02
2023-01-04T20:05:00.267Z,101920.52
2023-01-04T20:07:32.587Z,101920.77
2023-01-04T20:10:09.038Z,101918.64
2023-01-04T20:12:44.487Z,101913.58
2023-01-04T20:15:16.688Z,101906.12
2023-01-04T20:17:49.079Z,101898.55
2023-01-04T20:20:22.130Z,101894.90
2023-01-04T20:22:54.277Z,101892.64
2023-01-04T20:25:26.531Z,101892.13
2023-01-04T20:27:58.737Z,101888.95
2023-01-04T20:30:30.923Z,101884.04
2023-01-04T20:33:03.183Z,101881.02
2023-01-04T20:35:38.738Z,101876.23
2023-01-04T20:38:11.537Z,101874.65
2023-01-04T20:40:45.957Z,101868.23
2023-01-04T20:43:37.405Z,101866.15
2023-01-04T20:46:15.140Z,101859.59
2023-01-04T20:48:47.835Z,101854.64
2023-01-04T20:51:22.345Z,101851.73
2023-01-04T20:53:55.191Z,101855.77
2023-01-04T20:56:29.725Z,101853.77
2023-01-04T20:59:01.892Z,101856.46
2023-01-04T21:01:34.219Z,101857.98
2023-01-04T21:04:06.787Z,101855.45
2023-01-04T21:06:38.967Z,101852.02
2023-01-04T21:09:11.163Z,101854.06
2023-01-04T21:11:43.381Z,101853.80
2023-01-04T21:14:15.547Z,101856.57
2023-01-04T21:16:47.915Z,101854.55
2023-01-04T21:19:20.469Z,101851.73
2023-01-04T21:21:52.696Z,101851.90
2023-01-04T21:24:24.837Z,101848.86
2023-01-04T21:26:56.999Z,101847.81
2023-01-04T21:29:29.808Z,101846.60
2023-01-04T21:32:02.005Z,101846.08
2023-01-04T21:34:34.163Z,101843.80
2023-01-04T21:37:06.440Z,101841.48
2023-01-04T21:39:38.730Z,101835.33
2023-01-04T21:42:11.044Z,101830.02
2023-01-04T21:44:43.240Z,101830.63
2023-01-04T21:47:15.438Z,101832.93
2023-01-04T21:49:48.518Z,101834.16
2023-01-04T21:52:22.476Z,101832.92
2023-01-04T21:54:55.057Z,101828.40
2023-01-04T21:57:27.586Z,101827.45
2023-01-04T21:59:59.737Z,101827.27
2023-01-04T22:02:32.099Z,101826.59
2023-01-04T22:05:04.873Z,101822.39
2023-01-04T22:07:37.581Z,101820.13
2023-01-04T22:10:10.542Z,101815.84
2023-01-04T22:12:45.094Z,101811.95
2023-01-04T22:15:17.488Z,101806.70
2023-01-04T22:17:51.480Z,101808.13
2023-01-04T22:20:23.739Z,101799.70
2023-01-04T22:22:55.963Z,101791.52
2023-01-04T22:25:28.179Z,101787.15
2023-01-04T22:28:00.357Z,101781.23
2023-01-04T22:30:32.583Z,101778.47
2023-01-04T22:33:04.901Z,101779.98
2023-01-04T22:35:38.761Z,101781.44
2023-01-04T22:38:10.921Z,101780.08
2023-01-04T22:40:43.574Z,101768.86
2023-01-04T22:43:15.753Z,101761.48
2023-01-04T22:45:47.937Z,101757.70
2023-01-04T22:48:20.110Z,101762.09
2023-01-04T22:50:52.392Z,101760.72
2023-01-04T22:53:25.004Z,101751.11
2023-01-04T22:56:18.498Z,101756.52
2023-01-04T22:58:52.840Z,101749.54
2023-01-04T23:01:28.703Z,101741.51
2023-01-04T23:04:02.355Z,101736.69
2023-01-04T23:06:35.500Z,101727.11
2023-01-04T23:09:08.913Z,101728.81
2023-01-04T23:11:41.148Z,101716.92
2023-01-04T23:14:17.583Z,101719.38
2023-01-04T23:16:50.151Z,101721.13
2023-01-04T23:19:22.440Z,101714.33
2023-01-04T23:21:54.612Z,101700.42
2023-01-04T23:24:27.132Z,101698.02
2023-01-04T23:26:59.383Z,101691.18
2023-01-04T23:29:31.619Z,101679.70
2023-01-04T23:32:03.868Z,101677.35
2023-01-04T23:34:36.187Z,101674.39
2023-01-04T23:37:08.400Z,101666.65
2023-01-04T23:39:40.689Z,101662.02
2023-01-04T23:42:12.897Z,101660.48
2023-01-04T23:44:45.104Z,101661.06
2023-01-04T23:47:17.236Z,101656.94
2023-01-04T23:49:49.441Z,101660.45
2023-01-04T23:52:21.626Z,101659.09
2023-01-04T23:54:53.817Z,101670.46
2023-01-04T23:57:26.023Z,101673.11
2023-01-04T23:59:58.262Z,101667.16
